createdAt,value
2019-03-23T00:01:56.183Z,99.90
2019-03-23T00:04:25.482Z,99.90
2019-03-23T00:06:54.035Z,99.90
2019-03-23T00:09:22.474Z,99.90
2019-03-23T00:11:50.907Z,99.90
2019-03-23T00:14:19.372Z,99.90
2019-03-23T00:16:47.880Z,99.90
2019-03-23T00:19:16.314Z,99.90
2019-03-23T00:21:44.818Z,99.90
2019-03-23T00:24:13.251Z,99.90
2019-03-23T00:26:41.707Z,99.90
2019-03-23T00:29:10.174Z,99.90
2019-03-23T00:31:38.682Z,99.90
2019-03-23T00:34:07.111Z,99.90
2019-03-23T00:36:41.297Z,99.90
2019-03-23T00:39:06.679Z,99.90
2019-03-23T00:41:35.414Z,99.90
2019-03-23T00:44:03.931Z,99.90
2019-03-23T00:46:32.366Z,99.90
2019-03-23T00:49:00.803Z,99.90
2019-03-23T00:51:29.274Z,99.90
2019-03-23T00:53:57.713Z,99.90
2019-03-23T00:56:26.156Z,99.90
2019-03-23T00:58:54.760Z,99.90
2019-03-23T01:01:23.215Z,99.90
2019-03-23T01:03:51.646Z,99.90
2019-03-23T01:06:20.102Z,99.90
2019-03-23T01:08:48.551Z,99.90
2019-03-23T01:11:16.984Z,99.90
2019-03-23T01:13:45.421Z,99.90
2019-03-23T01:16:13.860Z,99.90
2019-03-23T01:18:42.308Z,99.90
2019-03-23T01:21:10.758Z,99.90
2019-03-23T01:23:39.192Z,99.90
2019-03-23T01:26:07.671Z,99.90
2019-03-23T01:28:36.177Z,99.90
2019-03-23T01:31:04.615Z,99.90
2019-03-23T01:33:33.042Z,99.90
2019-03-23T01:36:01.513Z,99.90
2019-03-23T01:38:30.208Z,99.90
2019-03-23T01:40:58.677Z,99.90
2019-03-23T01:43:27.109Z,99.90
2019-03-23T01:45:55.560Z,99.90
2019-03-23T01:48:24.050Z,99.90
2019-03-23T01:50:52.503Z,99.90
2019-03-23T01:53:20.945Z,99.90
2019-03-23T01:55:49.376Z,99.90
2019-03-23T01:58:17.813Z,99.90
2019-03-23T02:00:46.280Z,99.90
2019-03-23T02:03:14.720Z,99.90
2019-03-23T02:05:43.163Z,99.90
2019-03-23T02:08:11.592Z,99.90
2019-03-23T02:10:41.868Z,99.90
2019-03-23T02:13:10.206Z,99.90
2019-03-23T02:15:38.636Z,99.90
2019-03-23T02:18:07.075Z,99.90
2019-03-23T02:20:35.501Z,99.90
2019-03-23T02:23:03.960Z,99.90
2019-03-23T02:25:32.391Z,99.90
2019-03-23T02:28:01.096Z,99.90
2019-03-23T02:30:29.657Z,99.90
2019-03-23T02:32:58.120Z,99.90
2019-03-23T02:35:26.552Z,99.90
2019-03-23T02:37:55.007Z,99.90
2019-03-23T02:40:23.461Z,99.90
2019-03-23T02:42:51.931Z,99.90
2019-03-23T02:45:20.439Z,99.90
2019-03-23T02:47:48.860Z,99.90
2019-03-23T02:50:17.307Z,99.90
2019-03-23T02:52:45.756Z,99.90
2019-03-23T02:55:14.189Z,99.90
2019-03-23T02:57:42.632Z,99.90
2019-03-23T03:00:13.312Z,99.90
2019-03-23T03:02:41.770Z,99.90
2019-03-23T03:05:10.295Z,99.90
2019-03-23T03:07:42.680Z,99.90
2019-03-23T03:10:11.239Z,99.90
2019-03-23T03:12:39.772Z,99.90
2019-03-23T03:15:09.234Z,99.90
2019-03-23T03:17:37.669Z,99.90
2019-03-23T03:20:07.553Z,99.90
2019-03-23T03:22:36.448Z,99.90
2019-03-23T03:25:06.724Z,99.90
2019-03-23T03:27:35.170Z,99.90
2019-03-23T03:30:05.364Z,99.90
2019-03-23T03:32:33.802Z,99.90
2019-03-23T03:35:02.246Z,99.90
2019-03-23T03:37:30.705Z,99.90
2019-03-23T03:39:59.136Z,99.90
2019-03-23T03:42:28.146Z,99.90
2019-03-23T03:44:56.587Z,99.90
2019-03-23T03:47:25.100Z,99.90
2019-03-23T03:49:53.523Z,99.90
2019-03-23T03:52:21.976Z,99.90
2019-03-23T03:54:50.408Z,99.90
2019-03-23T03:57:18.853Z,99.90
2019-03-23T03:59:47.288Z,99.90
2019-03-23T04:02:15.759Z,99.90
2019-03-23T04:04:47.290Z,99.90
2019-03-23T04:07:15.749Z,99.90
2019-03-23T04:09:44.183Z,99.90
2019-03-23T04:12:12.639Z,99.90
2019-03-23T04:14:41.095Z,99.90
2019-03-23T04:17:09.787Z,99.90
2019-03-23T04:19:38.229Z,99.90
2019-03-23T04:22:06.666Z,99.90
2019-03-23T04:24:35.115Z,99.90
2019-03-23T04:27:04.981Z,99.90
2019-03-23T04:29:33.939Z,99.90
2019-03-23T04:32:02.373Z,99.90
2019-03-23T04:34:30.806Z,99.90
2019-03-23T04:36:59.257Z,99.90
2019-03-23T04:39:27.705Z,99.90
2019-03-23T04:41:56.159Z,99.90
2019-03-23T04:44:24.606Z,99.90
2019-03-23T04:46:53.036Z,99.90
2019-03-23T04:49:21.474Z,99.90
2019-03-23T04:51:49.892Z,99.90
2019-03-23T04:54:18.333Z,99.90
2019-03-23T04:56:46.794Z,99.90
2019-03-23T04:59:15.245Z,99.90
2019-03-23T05:01:43.686Z,99.90
2019-03-23T05:04:12.163Z,99.90
2019-03-23T05:06:42.542Z,99.90
2019-03-23T05:09:10.810Z,99.90
2019-03-23T05:11:39.253Z,99.90
2019-03-23T05:14:07.754Z,99.90
2019-03-23T05:16:36.188Z,99.90
2019-03-23T05:19:04.661Z,99.90
2019-03-23T05:21:33.076Z,99.90
2019-03-23T05:24:01.535Z,99.90
2019-03-23T05:26:29.964Z,99.90
2019-03-23T05:28:58.400Z,99.90
2019-03-23T05:31:26.857Z,99.90
2019-03-23T05:33:55.375Z,99.90
2019-03-23T05:36:23.817Z,99.90
2019-03-23T05:38:52.277Z,99.90
2019-03-23T05:41:20.687Z,99.90
2019-03-23T05:43:49.147Z,99.90
2019-03-23T05:46:17.590Z,99.90
2019-03-23T05:48:46.030Z,99.90
2019-03-23T05:51:14.460Z,99.90
2019-03-23T05:53:42.885Z,99.90
2019-03-23T05:56:11.414Z,99.90
2019-03-23T05:58:39.857Z,99.90
2019-03-23T06:01:08.311Z,99.90
2019-03-23T06:03:36.755Z,99.90
2019-03-23T06:06:05.193Z,99.90
2019-03-23T06:08:33.658Z,99.90
2019-03-23T06:11:02.068Z,99.90
2019-03-23T06:13:30.526Z,99.90
2019-03-23T06:15:58.985Z,99.90
2019-03-23T06:18:27.412Z,99.90
2019-03-23T06:20:55.866Z,99.90
2019-03-23T06:23:24.313Z,99.90
2019-03-23T06:25:52.767Z,99.90
2019-03-23T06:28:21.176Z,99.90
2019-03-23T06:30:49.622Z,99.90
2019-03-23T06:33:18.075Z,99.90
2019-03-23T06:35:46.515Z,99.90
2019-03-23T06:38:16.372Z,99.90
2019-03-23T06:40:45.059Z,99.90
2019-03-23T06:43:13.551Z,99.90
2019-03-23T06:45:41.994Z,99.90
2019-03-23T06:48:10.424Z,99.90
2019-03-23T06:50:38.881Z,99.90
2019-03-23T06:53:07.283Z,99.90
2019-03-23T06:55:35.719Z,99.90
2019-03-23T06:58:04.210Z,99.90
2019-03-23T07:00:32.665Z,99.90
2019-03-23T07:03:01.114Z,99.90
2019-03-23T07:05:29.710Z,99.90
2019-03-23T07:07:58.200Z,99.90
2019-03-23T07:10:26.661Z,99.90
2019-03-23T07:12:55.097Z,99.90
2019-03-23T07:15:23.549Z,99.90
2019-03-23T07:17:51.979Z,99.90
2019-03-23T07:20:20.421Z,99.90
2019-03-23T07:22:48.866Z,99.90
2019-03-23T07:25:17.384Z,99.90
2019-03-23T07:27:45.820Z,99.90
2019-03-23T07:30:17.377Z,99.90
2019-03-23T07:32:46.157Z,99.90
2019-03-23T07:35:15.099Z,99.90
2019-03-23T07:37:43.687Z,99.90
2019-03-23T07:40:12.788Z,99.90
2019-03-23T07:42:41.292Z,99.90
2019-03-23T07:45:14.614Z,99.90
2019-03-23T07:47:42.876Z,99.90
2019-03-23T07:50:12.971Z,99.90
2019-03-23T07:52:41.526Z,99.90
2019-03-23T07:55:14.970Z,99.90
2019-03-23T07:57:43.759Z,99.90
2019-03-23T08:00:19.938Z,99.90
2019-03-23T08:02:48.444Z,99.90
2019-03-23T08:05:16.891Z,99.90
2019-03-23T08:07:45.536Z,99.90
2019-03-23T08:10:28.818Z,99.90
2019-03-23T08:12:57.255Z,99.90
2019-03-23T08:15:37.344Z,99.90
2019-03-23T08:18:05.771Z,99.90
2019-03-23T08:20:34.209Z,99.90
2019-03-23T08:23:02.673Z,99.90
2019-03-23T08:25:31.107Z,99.90
2019-03-23T08:27:59.592Z,99.90
2019-03-23T08:30:28.029Z,99.90
2019-03-23T08:32:56.459Z,99.90
2019-03-23T08:35:24.895Z,99.90
2019-03-23T08:37:53.334Z,99.90
2019-03-23T08:40:21.768Z,99.90
2019-03-23T08:42:50.206Z,99.90
2019-03-23T08:45:18.650Z,99.90
2019-03-23T08:47:47.088Z,99.90
2019-03-23T08:50:15.619Z,99.90
2019-03-23T08:52:44.037Z,99.90
2019-03-23T08:55:12.492Z,99.90
2019-03-23T08:57:41.532Z,99.90
2019-03-23T09:00:10.938Z,99.90
2019-03-23T09:02:39.378Z,99.90
2019-03-23T09:05:07.991Z,99.90
2019-03-23T09:07:42.309Z,99.90
2019-03-23T09:10:10.861Z,99.90
2019-03-23T09:12:40.858Z,99.90
2019-03-23T09:15:10.153Z,99.90
2019-03-23T09:17:38.593Z,99.90
2019-03-23T09:20:09.994Z,99.90
2019-03-23T09:22:38.674Z,99.90
2019-03-23T09:25:07.355Z,99.90
2019-03-23T09:27:35.856Z,99.90
2019-03-23T09:30:07.216Z,99.90
2019-03-23T09:32:35.895Z,99.90
2019-03-23T09:35:05.395Z,99.90
2019-03-23T09:37:33.838Z,99.90
2019-03-23T09:40:09.961Z,99.90
2019-03-23T09:42:32.408Z,99.90
2019-03-23T09:45:00.850Z,99.90
2019-03-23T09:47:29.293Z,99.90
2019-03-23T09:49:57.733Z,99.90
2019-03-23T09:52:26.170Z,99.90
2019-03-23T09:54:54.856Z,99.90
2019-03-23T09:57:23.299Z,99.90
2019-03-23T09:59:51.739Z,99.90
2019-03-23T10:02:20.174Z,99.90
2019-03-23T10:04:48.606Z,99.90
2019-03-23T10:07:17.043Z,99.90
2019-03-23T10:09:45.481Z,99.90
2019-03-23T10:12:13.935Z,99.90
2019-03-23T10:14:42.375Z,99.90
2019-03-23T10:17:10.814Z,99.90
2019-03-23T10:19:39.245Z,99.90
2019-03-23T10:22:07.680Z,99.90
2019-03-23T10:24:36.125Z,99.90
2019-03-23T10:27:04.645Z,99.90
2019-03-23T10:29:33.142Z,99.90
2019-03-23T10:32:01.586Z,99.90
2019-03-23T10:34:30.067Z,99.90
2019-03-23T10:36:58.499Z,99.90
2019-03-23T10:39:26.935Z,99.90
2019-03-23T10:41:55.370Z,99.90
2019-03-23T10:44:23.810Z,99.90
2019-03-23T10:46:52.259Z,99.90
2019-03-23T10:49:20.699Z,99.90
2019-03-23T10:51:49.148Z,99.90
2019-03-23T10:54:17.562Z,99.90
2019-03-23T10:56:46.002Z,99.90
2019-03-23T10:59:14.461Z,99.50
2019-03-23T11:01:42.886Z,99.90
2019-03-23T11:04:11.311Z,99.90
2019-03-23T11:06:39.753Z,99.90
2019-03-23T11:09:08.195Z,99.90
2019-03-23T11:11:36.648Z,98.90
2019-03-23T11:14:05.159Z,97.60
2019-03-23T11:16:33.615Z,99.90
2019-03-23T11:19:02.056Z,99.40
2019-03-23T11:21:30.497Z,98.20
2019-03-23T11:23:58.931Z,98.90
2019-03-23T11:26:28.194Z,98.50
2019-03-23T11:28:56.710Z,98.80
2019-03-23T11:31:25.143Z,95.10
2019-03-23T11:33:53.594Z,97.70
2019-03-23T11:36:22.065Z,98.60
2019-03-23T11:38:50.495Z,98.10
2019-03-23T11:41:18.913Z,97.10
2019-03-23T11:43:47.400Z,97.90
2019-03-23T11:46:17.030Z,95.30
2019-03-23T11:48:45.654Z,95.20
2019-03-23T11:51:14.092Z,96.10
2019-03-23T11:53:42.528Z,95.00
2019-03-23T11:56:10.953Z,93.50
2019-03-23T11:58:39.389Z,93.10
2019-03-23T12:01:07.831Z,93.80
2019-03-23T12:03:36.287Z,92.20
2019-03-23T12:06:04.792Z,93.70
2019-03-23T12:08:33.233Z,95.90
2019-03-23T12:11:03.062Z,93.50
2019-03-23T12:13:31.845Z,93.60
2019-03-23T12:16:00.339Z,91.00
2019-03-23T12:18:28.791Z,93.50
2019-03-23T12:20:57.230Z,91.50
2019-03-23T12:23:25.666Z,92.10
2019-03-23T12:25:54.113Z,92.10
2019-03-23T12:28:22.585Z,91.60
2019-03-23T12:30:51.010Z,90.00
2019-03-23T12:33:21.432Z,87.20
2019-03-23T12:35:49.653Z,91.20
2019-03-23T12:38:18.090Z,86.90
2019-03-23T12:40:46.532Z,89.00
2019-03-23T12:43:14.975Z,86.30
2019-03-23T12:45:43.410Z,87.50
2019-03-23T12:48:12.165Z,86.00
2019-03-23T12:50:40.619Z,87.00
2019-03-23T12:53:09.088Z,87.60
2019-03-23T12:55:37.526Z,87.00
2019-03-23T12:58:05.963Z,89.10
2019-03-23T13:00:34.404Z,85.40
2019-03-23T13:03:02.848Z,86.90
2019-03-23T13:05:31.296Z,81.00
2019-03-23T13:07:59.741Z,82.30
2019-03-23T13:10:28.174Z,88.80
2019-03-23T13:12:58.337Z,87.80
2019-03-23T13:15:26.946Z,87.10
2019-03-23T13:17:55.404Z,81.00
2019-03-23T13:20:23.919Z,81.50
2019-03-23T13:22:52.475Z,82.50
2019-03-23T13:25:20.908Z,82.00
2019-03-23T13:27:49.407Z,78.90
2019-03-23T13:30:18.187Z,81.00
2019-03-23T13:32:46.887Z,82.90
2019-03-23T13:35:15.311Z,84.00
2019-03-23T13:37:43.812Z,78.00
2019-03-23T13:40:13.798Z,80.10
2019-03-23T13:42:42.315Z,76.80
2019-03-23T13:45:11.291Z,82.00
2019-03-23T13:47:40.418Z,81.00
2019-03-23T13:50:10.690Z,79.50
2019-03-23T13:52:39.324Z,81.50
2019-03-23T13:55:07.900Z,76.70
2019-03-23T13:57:36.337Z,80.10
2019-03-23T14:00:08.643Z,82.30
2019-03-23T14:02:37.638Z,80.80
2019-03-23T14:05:12.260Z,81.60
2019-03-23T14:07:36.321Z,78.20
2019-03-23T14:10:06.315Z,80.20
2019-03-23T14:12:34.750Z,79.60
2019-03-23T14:15:03.260Z,79.20
2019-03-23T14:17:31.678Z,75.70
2019-03-23T14:20:00.249Z,77.30
2019-03-23T14:22:28.759Z,77.10
2019-03-23T14:24:57.201Z,81.20
2019-03-23T14:27:25.634Z,79.10
2019-03-23T14:29:54.129Z,79.20
2019-03-23T14:32:22.546Z,79.90
2019-03-23T14:34:50.995Z,79.80
2019-03-23T14:37:19.472Z,79.90
2019-03-23T14:39:47.949Z,78.30
2019-03-23T14:42:16.392Z,79.30
2019-03-23T14:44:44.841Z,76.30
2019-03-23T14:47:13.298Z,76.00
2019-03-23T14:49:41.743Z,77.60
2019-03-23T14:52:10.213Z,77.60
2019-03-23T14:54:38.690Z,71.60
2019-03-23T14:57:07.118Z,72.30
2019-03-23T14:59:35.572Z,71.30
2019-03-23T15:02:04.029Z,74.30
2019-03-23T15:04:32.950Z,74.10
2019-03-23T15:07:01.388Z,72.80
2019-03-23T15:09:29.841Z,71.60
2019-03-23T15:11:58.286Z,73.20
2019-03-23T15:14:26.754Z,73.10
2019-03-23T15:16:55.199Z,69.70
2019-03-23T15:19:23.921Z,67.90
2019-03-23T15:21:52.346Z,67.20
2019-03-23T15:24:20.790Z,67.80
2019-03-23T15:26:49.234Z,67.80
2019-03-23T15:29:17.681Z,69.50
2019-03-23T15:31:46.134Z,69.30
2019-03-23T15:34:14.567Z,69.20
2019-03-23T15:36:43.004Z,69.40
2019-03-23T15:39:11.456Z,70.00
2019-03-23T15:41:39.890Z,68.30
2019-03-23T15:44:08.385Z,67.80
2019-03-23T15:46:36.821Z,66.70
2019-03-23T15:49:05.286Z,65.00
2019-03-23T15:51:33.737Z,66.50
2019-03-23T15:54:02.182Z,66.60
2019-03-23T15:56:30.651Z,65.20
2019-03-23T15:58:59.098Z,69.60
2019-03-23T16:01:27.533Z,69.10
2019-03-23T16:03:55.978Z,69.30
2019-03-23T16:06:30.202Z,71.10
2019-03-23T16:08:58.634Z,68.20
2019-03-23T16:11:27.068Z,71.30
2019-03-23T16:13:55.505Z,69.20
2019-03-23T16:16:23.963Z,69.60
2019-03-23T16:18:52.409Z,70.70
2019-03-23T16:21:20.896Z,72.60
2019-03-23T16:23:49.343Z,70.60
2019-03-23T16:26:17.810Z,70.40
2019-03-23T16:28:46.256Z,70.40
2019-03-23T16:31:14.711Z,70.60
2019-03-23T16:33:43.153Z,69.20
2019-03-23T16:36:11.639Z,68.20
2019-03-23T16:38:40.065Z,70.20
2019-03-23T16:41:10.642Z,70.60
2019-03-23T16:43:39.092Z,70.60
2019-03-23T16:46:07.561Z,71.20
2019-03-23T16:48:36.005Z,71.90
2019-03-23T16:51:04.446Z,71.90
2019-03-23T16:53:33.130Z,71.20
2019-03-23T16:56:01.582Z,71.60
2019-03-23T16:58:30.014Z,72.40
2019-03-23T17:00:58.469Z,72.70
2019-03-23T17:03:26.895Z,72.70
2019-03-23T17:05:55.346Z,74.60
2019-03-23T17:08:23.804Z,73.00
2019-03-23T17:10:52.278Z,74.30
2019-03-23T17:13:20.751Z,74.90
2019-03-23T17:15:49.198Z,74.20
2019-03-23T17:18:17.647Z,75.80
2019-03-23T17:20:49.108Z,75.90
2019-03-23T17:23:17.546Z,76.60
2019-03-23T17:25:45.999Z,75.50
2019-03-23T17:28:14.497Z,76.30
2019-03-23T17:30:42.933Z,76.60
2019-03-23T17:33:11.381Z,77.10
2019-03-23T17:35:39.846Z,77.40
2019-03-23T17:38:08.263Z,78.20
2019-03-23T17:40:36.726Z,79.20
2019-03-23T17:43:06.308Z,79.00
2019-03-23T17:45:35.143Z,80.80
2019-03-23T17:48:03.642Z,82.60
2019-03-23T17:50:32.107Z,84.50
2019-03-23T17:53:00.581Z,83.70
2019-03-23T17:55:29.025Z,85.00
2019-03-23T17:57:57.470Z,85.80
2019-03-23T18:00:25.938Z,87.30
2019-03-23T18:02:54.385Z,87.50
2019-03-23T18:05:22.855Z,86.60
2019-03-23T18:07:51.392Z,88.50
2019-03-23T18:10:20.072Z,89.40
2019-03-23T18:12:48.538Z,88.90
2019-03-23T18:15:16.970Z,89.70
2019-03-23T18:17:45.435Z,90.50
2019-03-23T18:20:14.110Z,91.10
2019-03-23T18:22:42.553Z,91.10
2019-03-23T18:25:11.224Z,90.80
2019-03-23T18:27:39.735Z,91.40
2019-03-23T18:30:17.085Z,91.50
2019-03-23T18:32:45.546Z,92.20
2019-03-23T18:35:13.956Z,93.10
2019-03-23T18:37:42.499Z,93.60
2019-03-23T18:40:11.032Z,93.80
2019-03-23T18:42:39.474Z,94.10
2019-03-23T18:45:07.962Z,94.90
2019-03-23T18:47:36.411Z,95.90
2019-03-23T18:50:06.566Z,96.20
2019-03-23T18:52:35.008Z,96.20
2019-03-23T18:55:05.191Z,97.30
2019-03-23T18:57:33.635Z,97.90
2019-03-23T19:00:02.079Z,98.30
2019-03-23T19:02:33.755Z,98.80
2019-03-23T19:05:02.188Z,99.30
2019-03-23T19:07:30.611Z,99.40
2019-03-23T19:09:59.046Z,99.40
2019-03-23T19:12:27.474Z,99.80
2019-03-23T19:14:55.922Z,99.70
2019-03-23T19:17:24.435Z,98.40
2019-03-23T19:19:52.882Z,97.80
2019-03-23T19:22:21.395Z,99.50
2019-03-23T19:24:49.827Z,99.60
2019-03-23T19:27:18.268Z,98.50
2019-03-23T19:29:46.713Z,98.80
2019-03-23T19:32:15.150Z,98.90
2019-03-23T19:34:43.577Z,98.70
2019-03-23T19:37:12.029Z,99.20
2019-03-23T19:39:40.464Z,99.30
2019-03-23T19:42:08.902Z,98.90
2019-03-23T19:44:37.363Z,99.90
2019-03-23T19:47:05.797Z,99.90
2019-03-23T19:49:34.509Z,99.90
2019-03-23T19:52:02.947Z,99.90
2019-03-23T19:54:31.449Z,99.90
2019-03-23T19:56:59.949Z,99.90
2019-03-23T19:59:28.384Z,99.90
2019-03-23T20:01:57.116Z,99.90
2019-03-23T20:04:25.554Z,99.90
2019-03-23T20:06:53.998Z,99.90
2019-03-23T20:09:22.432Z,99.90
2019-03-23T20:11:50.881Z,99.90
2019-03-23T20:14:19.395Z,99.90
2019-03-23T20:16:47.860Z,99.90
2019-03-23T20:19:16.318Z,99.90
2019-03-23T20:21:44.775Z,99.90
2019-03-23T20:24:13.231Z,99.90
2019-03-23T20:26:41.648Z,99.90
2019-03-23T20:29:10.100Z,99.90
2019-03-23T20:31:38.550Z,99.90
2019-03-23T20:34:07.054Z,99.90
2019-03-23T20:36:39.353Z,99.90
2019-03-23T20:39:08.264Z,99.90
2019-03-23T20:41:36.705Z,99.90
2019-03-23T20:44:09.390Z,99.90
2019-03-23T20:46:35.854Z,99.90
2019-03-23T20:49:04.368Z,99.90
2019-03-23T20:51:32.794Z,99.90
2019-03-23T20:54:01.626Z,99.90
2019-03-23T20:56:30.082Z,99.90
2019-03-23T20:58:58.522Z,99.90
2019-03-23T21:01:26.952Z,99.90
2019-03-23T21:03:55.421Z,99.90
2019-03-23T21:06:23.840Z,99.90
2019-03-23T21:08:52.291Z,99.90
2019-03-23T21:11:20.727Z,99.90
2019-03-23T21:13:49.173Z,99.90
2019-03-23T21:16:18.552Z,99.90
2019-03-23T21:18:47.005Z,99.90
2019-03-23T21:21:15.438Z,99.90
2019-03-23T21:23:43.894Z,99.90
2019-03-23T21:26:12.314Z,99.90
2019-03-23T21:28:40.763Z,99.90
2019-03-23T21:31:12.582Z,99.90
2019-03-23T21:33:41.025Z,99.90
2019-03-23T21:36:09.452Z,99.90
2019-03-23T21:38:37.881Z,99.90
2019-03-23T21:41:06.307Z,99.90
2019-03-23T21:43:34.745Z,99.90
2019-03-23T21:46:04.482Z,99.90
2019-03-23T21:48:32.957Z,99.90
2019-03-23T21:51:01.399Z,99.90
2019-03-23T21:53:29.820Z,99.90
2019-03-23T21:55:58.263Z,99.90
2019-03-23T21:58:26.679Z,99.90
2019-03-23T22:00:55.114Z,99.90
2019-03-23T22:03:23.551Z,99.90
2019-03-23T22:05:52.002Z,99.90
2019-03-23T22:08:20.432Z,99.90
2019-03-23T22:10:48.882Z,99.90
2019-03-23T22:13:17.300Z,99.90
2019-03-23T22:15:45.752Z,99.90
2019-03-23T22:18:14.196Z,99.90
2019-03-23T22:20:42.636Z,99.90
2019-03-23T22:23:11.079Z,99.90
2019-03-23T22:25:39.531Z,99.90
2019-03-23T22:28:07.968Z,99.90
2019-03-23T22:30:36.655Z,99.90
2019-03-23T22:33:05.075Z,99.90
2019-03-23T22:35:33.516Z,99.90
2019-03-23T22:38:01.909Z,99.90
2019-03-23T22:40:30.342Z,99.90
2019-03-23T22:42:58.767Z,99.90
2019-03-23T22:45:27.203Z,99.90
2019-03-23T22:47:55.636Z,99.90
2019-03-23T22:50:24.098Z,99.90
2019-03-23T22:52:52.538Z,99.90
2019-03-23T22:55:20.993Z,99.90
2019-03-23T22:57:49.488Z,99.90
2019-03-23T23:00:21.806Z,99.90
2019-03-23T23:02:50.229Z,99.90
2019-03-23T23:05:18.764Z,99.90
2019-03-23T23:07:47.178Z,99.90
2019-03-23T23:10:15.786Z,99.90
2019-03-23T23:12:44.218Z,99.90
2019-03-23T23:15:12.895Z,99.90
2019-03-23T23:17:41.309Z,99.90
2019-03-23T23:20:09.977Z,99.90
2019-03-23T23:22:40.317Z,99.90
2019-03-23T23:25:09.007Z,99.90
2019-03-23T23:27:37.439Z,99.90
2019-03-23T23:30:08.441Z,99.90
2019-03-23T23:32:37.304Z,99.90
2019-03-23T23:35:08.202Z,99.90
2019-03-23T23:37:36.764Z,99.90
2019-03-23T23:40:07.111Z,99.90
2019-03-23T23:42:35.675Z,99.90
2019-03-23T23:45:15.313Z,99.90
2019-03-23T23:47:38.962Z,99.90
2019-03-23T23:50:08.461Z,99.90
2019-03-23T23:52:36.878Z,99.90
2019-03-23T23:55:06.656Z,99.90
2019-03-23T23:57:35.078Z,99.90
